Time;durP1;ratioP1;P1;durP2;ratioP2;P2;SDS_P1;SDS_P2;PMS_P1;PMS_P2;Temp;Humidity;BMP_temperature;BMP_pressure;BME280_temperature;BME280_humidity;BME280_pressure;Samples;Min_cycle;Max_cycle;Signal;HPM_P1;HPM_P2
2023/04/30 00:01:42;;;;;;;;;;;;;;;6.34;63.34;101277.83;107212;1257;61390;-87
2023/04/30 00:04:20;;;;;;;;;;;;;;;6.28;63.56;101278.02;107020;1257;124859;-87
2023/04/30 00:06:47;;;;;;;;;;;;;;;6.21;63.66;101281.89;107114;1263;74707;-86
2023/04/30 00:09:18;;;;;;;;;;;;;;;6.16;63.71;101279.90;107374;1256;67628;-86
2023/04/30 00:14:48;;;;;;;;;;;;;;;6.06;63.83;101285.29;108016;1256;59882;-87
2023/04/30 00:17:22;;;;;;;;;;;;;;;5.99;64.02;101289.48;107205;1256;261529;-87
2023/04/30 00:19:51;;;;;;;;;;;;;;;5.94;63.89;101290.74;107463;1257;73404;-86
2023/04/30 00:22:26;;;;;;;;;;;;;;;5.89;64.04;101293.95;106854;1259;124078;-86
2023/04/30 00:25:15;;;;;;;;;;;;;;;5.83;64.15;101302.34;107109;1256;72270;-86
2023/04/30 00:27:50;;;;;;;;;;;;;;;5.76;64.37;101303.57;107322;1256;61289;-86
2023/04/30 00:30:24;;;;;;;;;;;;;;;5.71;64.45;101306.92;107127;1256;124770;-86
2023/04/30 00:33:00;;;;;;;;;;;;;;;5.66;64.47;101310.33;107363;1257;73117;-86
2023/04/30 00:35:28;;;;;;;;;;;;;;;5.61;64.61;101307.45;107125;1256;124439;-86
2023/04/30 00:37:57;;;;;;;;;;;;;;;5.56;64.50;101308.23;107253;1256;70800;-86
2023/04/30 00:40:24;;;;;;;;;;;;;;;5.50;64.73;101313.14;107206;1256;124230;-86
2023/04/30 00:43:05;;;;;;;;;;;;;;;5.44;64.85;101316.14;107259;1259;60354;-86
2023/04/30 00:45:34;;;;;;;;;;;;;;;5.38;64.95;101316.67;107291;1256;74774;-86
2023/04/30 00:48:16;;;;;;;;;;;;;;;5.32;64.94;101318.91;107459;1257;124782;-86
2023/04/30 00:50:49;;;;;;;;;;;;;;;5.25;65.19;101319.92;107609;1256;72794;-86
2023/04/30 00:53:16;;;;;;;;;;;;;;;5.20;65.28;101323.85;107416;1257;124695;-86
2023/04/30 00:55:44;;;;;;;;;;;;;;;5.16;65.29;101327.42;107381;1257;60201;-86
2023/04/30 00:58:20;;;;;;;;;;;;;;;5.12;65.47;101331.06;107038;1257;124789;-87
2023/04/30 01:00:48;;;;;;;;;;;;;;;5.10;65.51;101330.77;107140;1256;65820;-86
2023/04/30 01:03:16;;;;;;;;;;;;;;;5.09;65.48;101336.75;107481;1259;71189;-87
2023/04/30 01:05:50;;;;;;;;;;;;;;;5.06;65.42;101335.39;107521;1256;124664;-87
2023/04/30 01:08:17;;;;;;;;;;;;;;;5.02;65.44;101339.20;107645;1256;61273;-87
2023/04/30 01:10:55;;;;;;;;;;;;;;;5.01;65.51;101338.27;107319;1256;124708;-87
2023/04/30 01:13:27;;;;;;;;;;;;;;;5.01;65.53;101337.00;106999;1257;65797;-87
2023/04/30 01:16:13;;;;;;;;;;;;;;;4.99;65.58;101337.64;107159;1256;71367;-87
2023/04/30 01:19:00;;;;;;;;;;;;;;;4.99;65.73;101336.20;107033;1257;61306;-87
2023/04/30 01:21:40;;;;;;;;;;;;;;;4.96;65.56;101336.79;107356;1257;60473;-87
2023/04/30 01:24:07;;;;;;;;;;;;;;;4.97;65.61;101341.30;107088;1256;124882;-87
2023/04/30 01:27:10;;;;;;;;;;;;;;;4.97;65.75;101339.91;107098;1256;65891;-86
2023/04/30 01:29:46;;;;;;;;;;;;;;;4.96;65.77;101340.56;106386;1265;124511;-86
2023/04/30 01:32:48;;;;;;;;;;;;;;;4.94;65.74;101343.92;107219;1256;61138;-86
2023/04/30 01:35:15;;;;;;;;;;;;;;;4.91;65.78;101344.99;107417;1256;123943;-86
2023/04/30 01:38:03;;;;;;;;;;;;;;;4.89;65.64;101351.27;107532;1257;73380;-86
2023/04/30 01:40:42;;;;;;;;;;;;;;;4.84;65.76;101354.71;107373;1259;124598;-82
2023/04/30 01:43:28;;;;;;;;;;;;;;;4.81;65.85;101359.70;107605;1256;72729;-82
2023/04/30 01:46:12;;;;;;;;;;;;;;;4.77;65.74;101359.13;107602;1257;60900;-83
2023/04/30 01:48:43;;;;;;;;;;;;;;;4.73;65.93;101360.45;107246;1256;60011;-83
2023/04/30 01:51:20;;;;;;;;;;;;;;;4.68;65.90;101363.86;107105;1256;75285;-83
2023/04/30 01:53:47;;;;;;;;;;;;;;;4.64;65.98;101365.33;107360;1262;123947;-83
2023/04/30 01:56:34;;;;;;;;;;;;;;;4.60;66.12;101368.27;108568;1256;70411;-83
2023/04/30 01:59:01;;;;;;;;;;;;;;;4.58;66.13;101368.13;107270;1256;124181;-82
2023/04/30 02:01:29;;;;;;;;;;;;;;;4.55;66.13;101368.25;107331;1257;60122;-82
2023/04/30 02:03:56;;;;;;;;;;;;;;;4.51;66.12;101371.00;107579;1256;74955;-82
2023/04/30 02:06:28;;;;;;;;;;;;;;;4.46;66.22;101367.27;107243;1257;124032;-82
2023/04/30 02:09:01;;;;;;;;;;;;;;;4.43;66.46;101370.16;107650;1262;73245;-82
2023/04/30 02:11:28;;;;;;;;;;;;;;;4.38;66.37;101375.46;107701;1256;124154;-82
2023/04/30 02:13:57;;;;;;;;;;;;;;;4.34;66.36;101375.71;107504;1256;60135;-82
2023/04/30 02:16:24;;;;;;;;;;;;;;;4.30;66.46;101383.66;107240;1256;124528;-82
2023/04/30 02:18:51;;;;;;;;;;;;;;;4.26;66.60;101382.92;107529;1256;65862;-86
2023/04/30 02:21:20;;;;;;;;;;;;;;;4.23;66.89;101387.05;107831;1256;71144;-86
2023/04/30 02:23:47;;;;;;;;;;;;;;;4.18;66.85;101381.88;107693;1256;124063;-86
2023/04/30 02:26:14;;;;;;;;;;;;;;;4.17;66.73;101390.52;107597;1256;60562;-86
2023/04/30 02:28:41;;;;;;;;;;;;;;;4.14;66.97;101392.77;107732;1256;125020;-82
2023/04/30 02:31:08;;;;;;;;;;;;;;;4.12;67.14;101397.32;107846;1257;67048;-82
2023/04/30 02:33:36;;;;;;;;;;;;;;;4.10;67.14;101397.23;107715;1256;72675;-82
2023/04/30 02:36:04;;;;;;;;;;;;;;;4.08;67.25;101395.02;107462;1263;125388;-82
2023/04/30 02:38:33;;;;;;;;;;;;;;;4.07;67.20;101397.02;107640;1258;60912;-82
2023/04/30 02:41:01;;;;;;;;;;;;;;;4.06;67.31;101392.10;107457;1256;73115;-82
2023/04/30 02:43:30;;;;;;;;;;;;;;;4.05;67.40;101395.68;107528;1256;67204;-82
2023/04/30 02:46:04;;;;;;;;;;;;;;;4.04;67.43;101398.91;107773;1256;74034;-82
2023/04/30 02:48:33;;;;;;;;;;;;;;;4.03;67.54;101397.83;107399;1256;59846;-85
2023/04/30 02:51:00;;;;;;;;;;;;;;;4.02;67.70;101398.33;107178;1256;60873;-85
2023/04/30 02:53:34;;;;;;;;;;;;;;;4.02;67.63;101399.50;107193;1256;124844;-85
2023/04/30 02:56:07;;;;;;;;;;;;;;;4.02;67.72;101401.39;107266;1256;67994;-85
2023/04/30 02:58:34;;;;;;;;;;;;;;;4.01;67.89;101404.33;107400;1256;124987;-85
2023/04/30 03:01:11;;;;;;;;;;;;;;;4.01;67.82;101407.10;107464;1256;62171;-85
2023/04/30 03:03:48;;;;;;;;;;;;;;;4.01;68.02;101408.87;107475;1256;59703;-85
2023/04/30 03:06:21;;;;;;;;;;;;;;;4.03;68.05;101409.09;107836;1256;124610;-89
2023/04/30 03:08:51;;;;;;;;;;;;;;;4.03;68.14;101410.87;107661;1256;65635;-85
2023/04/30 03:11:25;;;;;;;;;;;;;;;4.03;68.18;101414.69;107036;1256;124665;-85
2023/04/30 03:14:14;;;;;;;;;;;;;;;4.06;68.04;101419.04;107296;1256;61343;-93
2023/04/30 03:17:05;;;;;;;;;;;;;;;4.09;68.13;101419.91;107527;1256;124264;-91
2023/04/30 03:19:50;;;;;;;;;;;;;;;4.12;68.14;101420.23;107826;1256;74601;-91
2023/04/30 03:22:19;;;;;;;;;;;;;;;4.15;68.26;101421.45;107478;1257;124256;-90
2023/04/30 03:24:52;;;;;;;;;;;;;;;4.17;68.42;101423.88;107832;1256;71409;-93
2023/04/30 03:27:31;;;;;;;;;;;;;;;4.21;68.43;101424.45;107703;1256;62222;-92
2023/04/30 03:30:00;;;;;;;;;;;;;;;4.26;68.42;101426.88;107602;1256;124101;-92
2023/04/30 03:32:43;;;;;;;;;;;;;;;4.32;68.54;101425.82;107672;1256;73384;-86
2023/04/30 03:35:17;;;;;;;;;;;;;;;4.39;68.52;101430.77;107746;1256;124537;-86
2023/04/30 03:37:44;;;;;;;;;;;;;;;4.48;68.46;101433.05;107750;1256;71417;-86
2023/04/30 03:40:18;;;;;;;;;;;;;;;4.95;69.47;101433.77;107835;1256;60350;-86
2023/04/30 03:42:46;;;;;;;;;;;;;;;6.08;70.05;101433.45;107758;1256;59972;-86
2023/04/30 03:45:13;;;;;;;;;;;;;;;7.27;69.45;101431.38;107918;1256;74857;-87
2023/04/30 03:47:40;;;;;;;;;;;;;;;8.39;68.58;101431.05;107935;1260;124272;-82
2023/04/30 03:50:07;;;;;;;;;;;;;;;9.44;67.13;101430.13;107891;1256;71375;-87
2023/04/30 03:52:35;;;;;;;;;;;;;;;10.37;65.74;101431.98;108836;1256;124238;-86
2023/04/30 03:55:03;;;;;;;;;;;;;;;11.24;64.34;101430.25;108951;1256;59184;-82
2023/04/30 03:57:32;;;;;;;;;;;;;;;12.10;63.21;101435.08;108697;1256;74343;-82
2023/04/30 04:00:00;;;;;;;;;;;;;;;12.95;61.89;101436.92;107420;1256;125214;-82
2023/04/30 04:02:27;;;;;;;;;;;;;;;13.75;60.48;101434.35;107526;1256;71425;-83
2023/04/30 04:04:55;;;;;;;;;;;;;;;14.41;59.08;101435.08;107489;1256;125062;-82
2023/04/30 04:07:22;;;;;;;;;;;;;;;15.19;58.23;101433.53;107538;1256;60850;-84
2023/04/30 04:09:54;;;;;;;;;;;;;;;16.03;56.95;101432.72;107346;1257;73371;-81
2023/04/30 04:12:21;;;;;;;;;;;;;;;16.73;55.52;101433.21;107378;1257;124825;-81
2023/04/30 04:14:48;;;;;;;;;;;;;;;17.43;54.53;101435.82;106968;1259;71233;-82
2023/04/30 04:17:15;;;;;;;;;;;;;;;18.07;53.13;101432.89;107304;1257;124301;-81
2023/04/30 04:19:48;;;;;;;;;;;;;;;18.75;52.09;101429.06;107573;1257;61039;-81
2023/04/30 04:22:15;;;;;;;;;;;;;;;19.33;50.74;101431.64;107113;1257;73637;-83
2023/04/30 04:24:42;;;;;;;;;;;;;;;19.96;50.09;101433.32;106960;1257;124507;-82
2023/04/30 04:27:15;;;;;;;;;;;;;;;20.52;48.56;101436.15;107156;1257;72672;-86
2023/04/30 04:29:56;;;;;;;;;;;;;;;20.89;47.28;101444.17;106890;1259;124316;-86
2023/04/30 04:32:29;;;;;;;;;;;;;;;21.18;46.38;101445.91;106999;1259;61244;-91
2023/04/30 04:35:11;;;;;;;;;;;;;;;21.55;45.36;101445.10;106866;1257;125081;-91
2023/04/30 04:38:01;;;;;;;;;;;;;;;21.90;44.57;101449.04;106969;1257;65808;-90
2023/04/30 04:40:38;;;;;;;;;;;;;;;22.33;44.01;101451.23;107161;1257;124808;-91
2023/04/30 04:43:13;;;;;;;;;;;;;;;22.98;43.44;101449.99;107169;1257;60608;-86
2023/04/30 04:45:49;;;;;;;;;;;;;;;23.32;41.96;101454.49;107136;1257;61362;-86
2023/04/30 04:48:18;;;;;;;;;;;;;;;23.52;41.17;101459.52;107360;1257;124490;-85
2023/04/30 04:50:45;;;;;;;;;;;;;;;23.76;40.82;101460.90;107296;1257;66912;-87
2023/04/30 04:53:12;;;;;;;;;;;;;;;24.12;40.14;101458.08;107105;1257;124933;-86
2023/04/30 04:55:46;;;;;;;;;;;;;;;24.50;39.40;101463.05;107317;1259;59732;-86
2023/04/30 04:58:27;;;;;;;;;;;;;;;24.95;39.19;101465.81;107029;1257;59412;-87
2023/04/30 05:00:54;;;;;;;;;;;;;;;25.62;38.52;101464.73;107058;1257;72866;-88
2023/04/30 05:03:27;;;;;;;;;;;;;;;26.17;37.91;101465.61;107060;1258;65902;-85
2023/04/30 05:05:55;;;;;;;;;;;;;;;26.42;36.96;101463.78;107126;1259;124584;-85
2023/04/30 05:08:22;;;;;;;;;;;;;;;26.53;36.43;101470.13;106954;1256;59875;-84
2023/04/30 05:11:08;;;;;;;;;;;;;;;26.64;35.70;101474.51;107103;1256;62208;-85
2023/04/30 05:13:41;;;;;;;;;;;;;;;26.61;35.08;101473.85;107042;1256;73377;-87
2023/04/30 05:16:08;;;;;;;;;;;;;;;26.67;34.61;101476.39;107181;1257;67070;-87
2023/04/30 05:18:40;;;;;;;;;;;;;;;26.57;34.15;101485.13;107043;1256;72674;-86
2023/04/30 05:21:12;;;;;;;;;;;;;;;26.26;33.54;101489.98;107179;1256;60020;-87
2023/04/30 05:23:48;;;;;;;;;;;;;;;25.73;33.37;101491.95;107151;1256;60010;-84
2023/04/30 05:29:56;;;;;;;;;;;;;;;22.52;33.07;101506.57;107244;1256;65621;-91
2023/04/30 05:32:23;;;;;;;;;;;;;;;20.43;33.73;101517.09;107512;1256;72609;-83
2023/04/30 05:34:53;;;;;;;;;;;;;;;18.97;34.99;101519.95;107467;1256;124569;-81
2023/04/30 05:37:21;;;;;;;;;;;;;;;17.66;36.08;101528.29;107646;1256;59578;-83
2023/04/30 05:39:48;;;;;;;;;;;;;;;16.48;36.88;101537.27;107330;1256;73091;-82
2023/04/30 05:42:15;;;;;;;;;;;;;;;15.35;38.15;101534.24;107150;1256;124848;-82
2023/04/30 05:44:42;;;;;;;;;;;;;;;14.41;39.09;101545.77;107488;1256;71356;-85
2023/04/30 05:47:09;;;;;;;;;;;;;;;13.64;40.27;101552.96;107472;1257;124679;-82
2023/04/30 05:49:36;;;;;;;;;;;;;;;12.98;41.29;101549.79;107315;1256;61263;-84
2023/04/30 05:52:04;;;;;;;;;;;;;;;12.58;42.34;101551.79;107290;1258;73121;-83
2023/04/30 05:54:52;;;;;;;;;;;;;;;12.19;43.24;101553.26;107495;1265;125363;-81
2023/04/30 05:57:25;;;;;;;;;;;;;;;11.90;43.84;101556.55;107501;1256;71456;-82
2023/04/30 05:59:53;;;;;;;;;;;;;;;11.59;44.43;101558.48;107512;1256;124249;-82
2023/04/30 06:02:21;;;;;;;;;;;;;;;11.35;45.00;101560.69;107601;1256;60718;-82
2023/04/30 06:04:49;;;;;;;;;;;;;;;11.13;45.51;101567.10;107637;1257;125186;-86
2023/04/30 06:07:16;;;;;;;;;;;;;;;10.85;45.93;101573.48;107494;1257;65763;-83
2023/04/30 06:09:44;;;;;;;;;;;;;;;10.54;46.42;101572.48;107169;1256;71078;-81
2023/04/30 06:12:33;;;;;;;;;;;;;;;10.35;47.12;101577.16;107448;1257;124386;-85
2023/04/30 06:15:02;;;;;;;;;;;;;;;10.16;47.65;101579.19;107413;1256;60299;-82
2023/04/30 06:17:29;;;;;;;;;;;;;;;10.07;48.14;101582.54;107533;1256;124485;-81
2023/04/30 06:19:59;;;;;;;;;;;;;;;10.05;48.51;101582.08;107523;1256;67108;-85
2023/04/30 06:22:32;;;;;;;;;;;;;;;9.98;48.71;101588.63;107396;1256;72799;-89
2023/04/30 06:25:00;;;;;;;;;;;;;;;9.85;48.95;101588.48;107252;1256;124005;-86
2023/04/30 06:27:31;;;;;;;;;;;;;;;9.76;49.30;101590.02;107529;1256;60278;-81
2023/04/30 06:29:59;;;;;;;;;;;;;;;9.66;49.71;101593.80;107593;1256;124983;-85
2023/04/30 06:32:35;;;;;;;;;;;;;;;9.52;49.90;101592.87;107286;1257;66762;-87
2023/04/30 06:35:18;;;;;;;;;;;;;;;9.52;50.48;101597.08;107211;1256;124387;-86
2023/04/30 06:37:50;;;;;;;;;;;;;;;9.51;50.53;101600.73;107401;1256;59547;-86
2023/04/30 06:40:19;;;;;;;;;;;;;;;9.51;50.85;101608.08;107472;1259;60347;-90
2023/04/30 06:43:02;;;;;;;;;;;;;;;9.46;50.83;101606.30;107566;1256;124045;-90
2023/04/30 06:45:37;;;;;;;;;;;;;;;9.43;51.02;101608.45;107521;1256;65800;-89
2023/04/30 06:48:18;;;;;;;;;;;;;;;9.39;51.11;101605.63;107411;1256;124395;-85
2023/04/30 06:50:45;;;;;;;;;;;;;;;9.32;51.44;101609.72;107329;1259;61359;-92
2023/04/30 06:53:37;;;;;;;;;;;;;;;9.28;51.65;101611.11;107125;1256;125028;-89
2023/04/30 06:56:06;;;;;;;;;;;;;;;9.29;51.79;101613.77;107171;1256;74684;-86
2023/04/30 06:58:49;;;;;;;;;;;;;;;9.29;51.84;101619.88;107240;1256;65905;-88
2023/04/30 07:01:23;;;;;;;;;;;;;;;9.28;51.98;101614.61;107070;1256;71427;-86
2023/04/30 07:03:53;;;;;;;;;;;;;;;9.33;52.20;101615.88;107097;1256;61493;-89
2023/04/30 07:06:29;;;;;;;;;;;;;;;9.38;52.15;101619.77;107412;1256;124332;-87
2023/04/30 07:08:57;;;;;;;;;;;;;;;9.39;51.82;101622.08;107367;1256;75236;-89
2023/04/30 07:11:37;;;;;;;;;;;;;;;9.36;51.69;101620.38;107493;1259;124784;-86
2023/04/30 07:14:10;;;;;;;;;;;;;;;9.35;51.73;101619.63;107641;1256;72690;-83
2023/04/30 07:16:49;;;;;;;;;;;;;;;9.40;51.95;101622.48;107606;1261;59568;-88
2023/04/30 07:19:25;;;;;;;;;;;;;;;9.45;52.01;101623.22;107702;1256;59809;-85
2023/04/30 07:22:05;;;;;;;;;;;;;;;9.53;52.23;101626.75;107155;1260;74680;-91
2023/04/30 07:24:32;;;;;;;;;;;;;;;9.64;52.04;101629.99;107468;1256;124032;-88
2023/04/30 07:27:06;;;;;;;;;;;;;;;9.72;51.62;101630.37;107837;1256;73165;-88
2023/04/30 07:29:47;;;;;;;;;;;;;;;9.72;51.15;101637.73;107572;1256;124609;-88
2023/04/30 07:32:15;;;;;;;;;;;;;;;9.67;50.98;101642.05;107317;1256;61933;-81
2023/04/30 07:34:57;;;;;;;;;;;;;;;9.65;50.91;101641.77;107139;1262;73547;-84
2023/04/30 07:37:24;;;;;;;;;;;;;;;9.64;51.13;101640.70;107186;1257;65796;-90
2023/04/30 07:39:57;;;;;;;;;;;;;;;9.68;51.30;101643.84;107177;1256;71506;-86
2023/04/30 07:42:40;;;;;;;;;;;;;;;9.88;51.24;101642.77;107360;1256;124243;-86
2023/04/30 07:48:13;;;;;;;;;;;;;;;10.42;50.07;101647.28;107220;1260;124598;-87
2023/04/30 07:50:40;;;;;;;;;;;;;;;10.45;49.76;101652.16;107354;1257;67100;-84
2023/04/30 07:53:08;;;;;;;;;;;;;;;10.42;49.31;101655.18;107435;1256;124590;-91
2023/04/30 07:55:40;;;;;;;;;;;;;;;10.32;49.34;101659.15;107448;1256;61249;-84
2023/04/30 07:58:07;;;;;;;;;;;;;;;10.20;48.72;101661.98;107508;1256;61233;-87
2023/04/30 08:00:33;;;;;;;;;;;;;;;10.08;48.86;101662.55;107377;1256;175786;-88
2023/04/30 08:03:01;;;;;;;;;;;;;;;10.08;48.92;101661.30;107493;1256;68121;-81
2023/04/30 08:05:28;;;;;;;;;;;;;;;10.12;48.72;101664.83;107432;1260;124454;-83
2023/04/30 08:07:55;;;;;;;;;;;;;;;10.21;48.87;101667.64;107679;1262;59633;-81
2023/04/30 08:10:22;;;;;;;;;;;;;;;10.34;48.73;101672.04;107703;1256;60187;-81
2023/04/30 08:12:49;;;;;;;;;;;;;;;10.51;48.74;101666.59;107705;1257;124962;-82
2023/04/30 08:15:18;;;;;;;;;;;;;;;10.81;48.63;101667.05;107720;1259;66783;-81
2023/04/30 08:17:45;;;;;;;;;;;;;;;11.07;47.96;101676.84;107570;1256;124927;-80
2023/04/30 08:20:14;;;;;;;;;;;;;;;11.11;47.22;101679.63;107475;1256;61078;-84
2023/04/30 08:22:43;;;;;;;;;;;;;;;11.04;47.06;101678.48;107509;1256;61362;-86
2023/04/30 08:25:11;;;;;;;;;;;;;;;11.09;46.82;101675.67;107557;1256;124745;-86
2023/04/30 08:27:50;;;;;;;;;;;;;;;11.24;47.05;101673.09;107483;1256;65478;-90
2023/04/30 08:30:18;;;;;;;;;;;;;;;11.49;47.01;101677.52;107244;1259;124758;-84
2023/04/30 08:32:56;;;;;;;;;;;;;;;11.68;46.30;101687.86;107493;1256;61238;-85
2023/04/30 08:35:23;;;;;;;;;;;;;;;11.72;45.35;101688.52;107502;1262;124712;-86
2023/04/30 08:37:54;;;;;;;;;;;;;;;11.78;45.27;101683.79;107856;1256;74449;-86
2023/04/30 08:40:21;;;;;;;;;;;;;;;11.85;45.26;101685.64;107912;1256;67052;-86
2023/04/30 08:42:53;;;;;;;;;;;;;;;12.01;45.34;101679.69;107739;1256;124950;-88
2023/04/30 08:45:20;;;;;;;;;;;;;;;12.14;44.68;101691.23;107754;1256;61269;-88
2023/04/30 08:47:47;;;;;;;;;;;;;;;12.15;44.38;101685.08;107883;1256;124220;-86
2023/04/30 08:50:14;;;;;;;;;;;;;;;12.23;44.48;101686.44;108057;1256;73098;-89
2023/04/30 08:52:41;;;;;;;;;;;;;;;12.40;44.34;101692.43;107923;1262;68984;-85
2023/04/30 08:55:11;;;;;;;;;;;;;;;12.52;43.95;101694.40;107553;1256;125385;-83
2023/04/30 08:57:39;;;;;;;;;;;;;;;12.63;43.99;101700.58;107593;1256;59302;-83
2023/04/30 09:00:09;;;;;;;;;;;;;;;12.71;43.98;101696.94;107666;1256;124368;-82
2023/04/30 09:02:46;;;;;;;;;;;;;;;12.75;43.55;101700.23;107705;1257;75554;-83
2023/04/30 09:05:15;;;;;;;;;;;;;;;12.75;43.37;101698.13;107362;1256;124627;-82
2023/04/30 09:07:43;;;;;;;;;;;;;;;12.57;43.09;101697.56;107460;1256;71365;-85
2023/04/30 09:10:15;;;;;;;;;;;;;;;12.44;43.28;101699.23;107716;1259;61015;-83
2023/04/30 09:12:44;;;;;;;;;;;;;;;12.50;43.33;101699.25;107713;1257;124500;-81
2023/04/30 09:15:11;;;;;;;;;;;;;;;12.67;42.94;101698.59;107786;1262;73639;-81
2023/04/30 09:17:38;;;;;;;;;;;;;;;12.79;42.56;101700.90;107778;1256;124674;-81
2023/04/30 09:20:08;;;;;;;;;;;;;;;12.84;42.28;101699.65;107561;1256;71401;-81
2023/04/30 09:22:35;;;;;;;;;;;;;;;12.85;42.09;101704.41;107611;1261;61221;-82
2023/04/30 09:25:02;;;;;;;;;;;;;;;12.78;41.99;101704.56;107384;1257;124297;-82
2023/04/30 09:27:29;;;;;;;;;;;;;;;12.72;42.08;101701.38;107525;1256;73270;-81
2023/04/30 09:29:56;;;;;;;;;;;;;;;12.65;42.04;101703.80;107217;1256;124249;-81
2023/04/30 09:32:23;;;;;;;;;;;;;;;12.54;41.86;101714.02;107200;1256;72695;-81
2023/04/30 09:34:53;;;;;;;;;;;;;;;12.40;41.76;101711.10;107463;1257;60752;-81
2023/04/30 09:37:20;;;;;;;;;;;;;;;12.31;41.84;101712.73;108617;1256;124152;-81
2023/04/30 09:39:48;;;;;;;;;;;;;;;12.32;41.67;101715.58;108930;1256;74666;-81
2023/04/30 09:42:15;;;;;;;;;;;;;;;12.41;41.89;101717.98;108751;1256;124934;-81
2023/04/30 09:44:42;;;;;;;;;;;;;;;12.62;41.21;101714.46;108967;1256;72500;-81
2023/04/30 09:47:19;;;;;;;;;;;;;;;12.76;41.16;101712.05;108824;1256;124303;-81
2023/04/30 09:49:47;;;;;;;;;;;;;;;12.88;41.02;101711.74;108892;1256;59388;-81
2023/04/30 09:52:14;;;;;;;;;;;;;;;12.76;40.56;101712.62;108828;1256;74699;-81
2023/04/30 09:54:41;;;;;;;;;;;;;;;12.67;40.53;101715.10;108558;1256;124308;-81
2023/04/30 09:57:09;;;;;;;;;;;;;;;12.62;40.55;101714.97;107373;1262;73149;-81
2023/04/30 09:59:38;;;;;;;;;;;;;;;12.63;40.37;101714.66;107596;1257;124462;-82
2023/04/30 10:02:05;;;;;;;;;;;;;;;12.79;40.28;101711.81;107644;1256;60460;-84
2023/04/30 10:04:33;;;;;;;;;;;;;;;13.02;40.09;101710.92;107797;1260;74381;-84
2023/04/30 10:07:14;;;;;;;;;;;;;;;13.19;39.88;101709.48;107531;1262;124578;-84
2023/04/30 10:09:48;;;;;;;;;;;;;;;13.35;39.72;101710.70;107489;1256;73016;-85
2023/04/30 10:12:19;;;;;;;;;;;;;;;13.57;39.72;101707.45;107621;1262;124795;-83
2023/04/30 10:15:01;;;;;;;;;;;;;;;13.69;39.30;101718.71;107564;1256;59897;-85
2023/04/30 10:17:39;;;;;;;;;;;;;;;13.54;39.33;101722.69;107370;1256;124998;-85
2023/04/30 10:20:07;;;;;;;;;;;;;;;13.30;38.84;101723.58;107407;1256;65791;-85
2023/04/30 10:22:35;;;;;;;;;;;;;;;12.96;38.32;101716.73;107548;1256;72741;-85
2023/04/30 10:25:02;;;;;;;;;;;;;;;12.60;38.37;101715.77;107247;1257;125564;-85
2023/04/30 10:27:29;;;;;;;;;;;;;;;12.35;38.92;101716.20;107177;1257;61309;-85
2023/04/30 10:29:56;;;;;;;;;;;;;;;12.24;39.13;101722.73;107174;1256;124776;-82
2023/04/30 10:32:25;;;;;;;;;;;;;;;12.14;38.53;101735.41;107299;1256;67016;-85
2023/04/30 10:34:54;;;;;;;;;;;;;;;12.01;38.88;101721.23;107090;1260;72919;-85
2023/04/30 10:37:30;;;;;;;;;;;;;;;12.05;39.42;101710.27;107051;1258;124580;-85
2023/04/30 10:39:57;;;;;;;;;;;;;;;12.20;39.79;101714.66;107197;1256;62155;-82
2023/04/30 10:42:24;;;;;;;;;;;;;;;12.35;39.63;101722.91;107317;1256;124953;-84
2023/04/30 10:44:55;;;;;;;;;;;;;;;12.42;39.21;101719.08;107513;1260;65341;-84
2023/04/30 10:47:27;;;;;;;;;;;;;;;12.42;38.93;101719.23;107447;1260;124621;-86
2023/04/30 10:50:01;;;;;;;;;;;;;;;12.42;38.98;101722.09;107442;1257;61080;-85
2023/04/30 10:52:28;;;;;;;;;;;;;;;12.38;38.87;101721.23;107398;1256;60786;-85
2023/04/30 10:54:56;;;;;;;;;;;;;;;12.28;38.92;101719.48;107074;1259;124658;-84
2023/04/30 10:57:23;;;;;;;;;;;;;;;12.22;39.00;101718.44;107339;1260;66622;-85
2023/04/30 10:59:52;;;;;;;;;;;;;;;12.22;38.86;101725.80;107267;1262;124230;-85
2023/04/30 11:02:19;;;;;;;;;;;;;;;12.12;38.74;101722.46;107349;1257;61369;-85
2023/04/30 11:05:05;;;;;;;;;;;;;;;11.96;38.63;101725.27;107304;1257;61323;-85
2023/04/30 11:07:51;;;;;;;;;;;;;;;11.76;38.46;101725.42;107399;1256;75468;-85
2023/04/30 11:10:22;;;;;;;;;;;;;;;11.68;38.68;101721.08;107479;1257;66699;-84
2023/04/30 11:12:52;;;;;;;;;;;;;;;11.73;38.84;101721.60;107023;1259;124452;-84
2023/04/30 11:15:21;;;;;;;;;;;;;;;11.82;38.74;101729.30;107138;1259;61397;-84
2023/04/30 11:17:51;;;;;;;;;;;;;;;11.87;38.57;101728.43;107026;1259;124788;-84
2023/04/30 11:20:19;;;;;;;;;;;;;;;11.92;38.49;101722.29;106971;1262;74451;-84
2023/04/30 11:22:47;;;;;;;;;;;;;;;11.95;38.41;101731.90;107151;1262;67145;-85
2023/04/30 11:25:23;;;;;;;;;;;;;;;11.97;37.88;101729.37;106946;1259;124907;-84
2023/04/30 11:27:50;;;;;;;;;;;;;;;12.01;37.83;101727.21;107313;1257;61292;-82
2023/04/30 11:30:19;;;;;;;;;;;;;;;12.04;37.90;101724.84;107273;1259;124351;-82
2023/04/30 11:32:48;;;;;;;;;;;;;;;12.04;37.87;101727.15;107320;1256;74662;-81
2023/04/30 11:35:18;;;;;;;;;;;;;;;12.03;37.85;101731.34;107173;1259;124419;-82
2023/04/30 11:37:46;;;;;;;;;;;;;;;11.99;37.60;101727.31;107230;1257;72372;-81
2023/04/30 11:40:14;;;;;;;;;;;;;;;11.93;37.49;101727.96;107083;1260;62173;-81
2023/04/30 11:42:45;;;;;;;;;;;;;;;11.82;37.18;101729.16;107416;1260;124381;-81
2023/04/30 11:45:19;;;;;;;;;;;;;;;11.79;37.59;101729.89;107381;1256;74310;-81
2023/04/30 11:47:47;;;;;;;;;;;;;;;11.82;37.67;101729.49;107133;1256;124505;-81
2023/04/30 11:50:18;;;;;;;;;;;;;;;11.89;37.88;101727.80;107165;1257;73175;-82
2023/04/30 11:52:48;;;;;;;;;;;;;;;11.97;37.30;101733.58;107354;1260;59682;-82
2023/04/30 11:55:16;;;;;;;;;;;;;;;11.97;37.20;101733.91;107142;1259;124654;-81
2023/04/30 11:57:43;;;;;;;;;;;;;;;12.00;37.39;101737.73;107331;1259;75291;-82
2023/04/30 12:00:20;;;;;;;;;;;;;;;12.07;37.49;101733.73;107142;1256;124362;-81
2023/04/30 12:02:47;;;;;;;;;;;;;;;12.13;37.60;101736.39;107369;1259;71633;-82
2023/04/30 12:05:21;;;;;;;;;;;;;;;12.19;37.71;101735.56;107378;1257;125831;-81
2023/04/30 12:07:55;;;;;;;;;;;;;;;12.28;37.85;101738.16;108893;1261;59313;-82
2023/04/30 12:10:23;;;;;;;;;;;;;;;12.32;37.55;101734.94;108779;1263;75452;-82
2023/04/30 12:12:53;;;;;;;;;;;;;;;12.32;37.48;101733.20;108116;1257;124278;-81
2023/04/30 12:15:25;;;;;;;;;;;;;;;12.25;37.40;101734.53;106914;1262;343006;-83
2023/04/30 12:17:53;;;;;;;;;;;;;;;12.20;37.34;101733.11;107307;1259;125275;-81
2023/04/30 12:20:23;;;;;;;;;;;;;;;12.16;37.35;101734.04;108787;1259;59444;-81
2023/04/30 12:22:50;;;;;;;;;;;;;;;12.14;37.38;101739.27;108673;1257;74790;-82
2023/04/30 12:25:19;;;;;;;;;;;;;;;12.13;37.39;101744.15;107521;1257;124273;-81
2023/04/30 12:27:50;;;;;;;;;;;;;;;12.09;37.17;101741.70;107494;1258;72493;-81
2023/04/30 12:30:20;;;;;;;;;;;;;;;12.02;37.31;101746.25;107746;1259;125756;-84
2023/04/30 12:32:49;;;;;;;;;;;;;;;12.01;37.22;101747.98;107772;1260;60129;-84
2023/04/30 12:35:18;;;;;;;;;;;;;;;12.00;37.33;101747.73;107204;1261;125005;-84
2023/04/30 12:37:46;;;;;;;;;;;;;;;12.02;37.57;101746.22;107288;1258;65743;-84
2023/04/30 12:40:14;;;;;;;;;;;;;;;12.03;37.37;101750.15;107458;1258;73031;-84
2023/04/30 12:42:43;;;;;;;;;;;;;;;12.00;37.49;101749.67;107531;1260;124365;-84
2023/04/30 12:45:10;;;;;;;;;;;;;;;12.01;37.63;101753.40;107529;1258;61863;-84
2023/04/30 12:47:39;;;;;;;;;;;;;;;11.97;37.47;101751.34;107267;1262;124827;-84
2023/04/30 12:50:07;;;;;;;;;;;;;;;11.89;37.70;101746.27;107424;1257;66113;-85
2023/04/30 12:52:34;;;;;;;;;;;;;;;11.95;38.00;101746.33;107322;1262;72672;-85
2023/04/30 12:55:22;;;;;;;;;;;;;;;12.04;37.80;101750.36;107387;1258;124457;-83
2023/04/30 12:58:07;;;;;;;;;;;;;;;12.06;37.71;101742.34;107378;1260;61068;-85
2023/04/30 13:03:56;;;;;;;;;;;;;;;12.00;37.64;101740.38;107559;1260;67592;-85